PWSweather.com
Personal Weather Stations
Station Observations
KMOHERMA2
Stony Hill, Hermann, MO 65041

Stony HillHermann, MO 65041

Lat: 38.527, Lon: -91.414

Elevation: 896

Station Type: Davis Vantage Pro 2

High Low Average
Temperature 79.8°F26.6°C 62.5°F16.9°C 68.9°F20.5°C
Dew Point 72.1°F22.3°C 61.0°F16.1°C 65.7°F18.7°C
Winds Calm Calm Calm Calm Calm SECalm SE
Wind Gusts 3.0 mph4.8 kmh -- --
Humidity 96% 74% 90%
Pressure 30.01 in1016.3 mb 29.79 in1008.8 mb -
Precipitation 1.77 in45.0 mm - -
Hour Temp Dew Point Humidity Winds Wind Gusts Pressure Precip Precip Rate Daily Precip Total
12:00 AM 63.0°F17.2°C 61.5°F16.4°C 95% Calm Calm -- 29.82 in1009.8 mb 0.00 in0.0 mm 0.00 in0.0 mm 0.00 in0.0 mm
12:05 AM 62.9°F17.2°C 61.5°F16.4°C 95% Calm Calm -- 29.82 in1009.8 mb 0.00 in0.0 mm 0.00 in0.0 mm 0.00 in0.0 mm
12:10 AM 62.9°F17.2°C 61.5°F16.4°C 95% Calm Calm -- 29.81 in1009.5 mb 0.00 in0.0 mm 0.00 in0.0 mm 0.00 in0.0 mm
12:15 AM 62.9°F17.2°C 61.5°F16.4°C 95% Calm Calm -- 29.81 in1009.5 mb 0.00 in0.0 mm 0.00 in0.0 mm 0.00 in0.0 mm
12:20 AM 62.8°F17.1°C 61.3°F16.3°C 95% Calm Calm -- 29.81 in1009.5 mb 0.00 in0.0 mm 0.00 in0.0 mm 0.00 in0.0 mm
12:25 AM 62.8°F17.1°C 61.3°F16.3°C 95% Calm Calm -- 29.81 in1009.5 mb 0.00 in0.0 mm 0.00 in0.0 mm 0.00 in0.0 mm
12:30 AM 62.8°F17.1°C 61.3°F16.3°C 95% Calm Calm -- 29.81 in1009.5 mb 0.00 in0.0 mm 0.00 in0.0 mm 0.00 in0.0 mm
12:35 AM 62.8°F17.1°C 61.3°F16.3°C 95% Calm Calm -- 29.81 in1009.5 mb 0.00 in0.0 mm 0.00 in0.0 mm 0.00 in0.0 mm
12:40 AM 62.8°F17.1°C 61.3°F16.3°C 95% Calm Calm -- 29.80 in1009.1 mb 0.00 in0.0 mm 0.00 in0.0 mm 0.00 in0.0 mm
12:45 AM 62.8°F17.1°C 61.3°F16.3°C 95% Calm Calm -- 29.80 in1009.1 mb 0.00 in0.0 mm 0.00 in0.0 mm 0.00 in0.0 mm
12:50 AM 62.7°F17.1°C 61.3°F16.3°C 95% Calm Calm -- 29.80 in1009.1 mb 0.00 in0.0 mm 0.00 in0.0 mm 0.00 in0.0 mm
12:55 AM 62.7°F17.1°C 61.3°F16.3°C 95% Calm Calm -- 29.80 in1009.1 mb 0.00 in0.0 mm 0.00 in0.0 mm 0.00 in0.0 mm
01:00 AM 62.6°F17.0°C 61.2°F16.2°C 95% Calm Calm -- 29.81 in1009.5 mb 0.00 in0.0 mm 0.00 in0.0 mm 0.00 in0.0 mm
01:05 AM 62.6°F17.0°C 61.2°F16.2°C 95% Calm Calm -- 29.81 in1009.5 mb 0.00 in0.0 mm 0.00 in0.0 mm 0.00 in0.0 mm
01:10 AM 62.6°F17.0°C 61.2°F16.2°C 95% Calm Calm -- 29.81 in1009.5 mb 0.00 in0.0 mm 0.00 in0.0 mm 0.00 in0.0 mm
01:15 AM 62.6°F17.0°C 61.2°F16.2°C 95% Calm Calm -- 29.81 in1009.5 mb 0.00 in0.0 mm 0.00 in0.0 mm 0.00 in0.0 mm
01:20 AM 62.6°F17.0°C 61.2°F16.2°C 95% Calm Calm -- 29.81 in1009.5 mb 0.00 in0.0 mm 0.00 in0.0 mm 0.00 in0.0 mm
01:25 AM 62.6°F17.0°C 61.2°F16.2°C 95% Calm Calm -- 29.81 in1009.5 mb 0.00 in0.0 mm 0.00 in0.0 mm 0.00 in0.0 mm
01:30 AM 62.5°F16.9°C 61.0°F16.1°C 95% Calm Calm -- 29.81 in1009.5 mb 0.00 in0.0 mm 0.00 in0.0 mm 0.00 in0.0 mm
01:35 AM 62.5°F16.9°C 61.0°F16.1°C 95% Calm Calm -- 29.81 in1009.5 mb 0.00 in0.0 mm 0.00 in0.0 mm 0.00 in0.0 mm
01:40 AM 62.5°F16.9°C 61.0°F16.1°C 95% Calm Calm -- 29.80 in1009.1 mb 0.00 in0.0 mm 0.00 in0.0 mm 0.00 in0.0 mm
01:45 AM 62.6°F17.0°C 61.2°F16.2°C 95% Calm Calm -- 29.80 in1009.1 mb 0.00 in0.0 mm 0.00 in0.0 mm 0.00 in0.0 mm
01:50 AM 62.6°F17.0°C 61.2°F16.2°C 95% Calm Calm -- 29.80 in1009.1 mb 0.00 in0.0 mm 0.00 in0.0 mm 0.00 in0.0 mm
01:55 AM 62.6°F17.0°C 61.2°F16.2°C 95% Calm Calm -- 29.80 in1009.1 mb 0.00 in0.0 mm 0.00 in0.0 mm 0.00 in0.0 mm
02:00 AM 62.7°F17.1°C 61.3°F16.3°C 95% Calm Calm -- 29.80 in1009.1 mb 0.00 in0.0 mm 0.00 in0.0 mm 0.00 in0.0 mm
02:05 AM 62.7°F17.1°C 61.3°F16.3°C 95% Calm Calm -- 29.81 in1009.5 mb 0.00 in0.0 mm 0.00 in0.0 mm 0.00 in0.0 mm
02:10 AM 62.8°F17.1°C 61.3°F16.3°C 95% Calm Calm -- 29.81 in1009.5 mb 0.00 in0.0 mm 0.00 in0.0 mm 0.00 in0.0 mm
02:15 AM 62.8°F17.1°C 61.3°F16.3°C 95% Calm Calm -- 29.80 in1009.1 mb 0.00 in0.0 mm 0.00 in0.0 mm 0.00 in0.0 mm
02:20 AM 62.9°F17.2°C 61.5°F16.4°C 95% Calm Calm -- 29.80 in1009.1 mb 0.00 in0.0 mm 0.00 in0.0 mm 0.00 in0.0 mm
02:25 AM 62.9°F17.2°C 61.5°F16.4°C 95% Calm Calm -- 29.80 in1009.1 mb 0.00 in0.0 mm 0.00 in0.0 mm 0.00 in0.0 mm
02:30 AM 62.9°F17.2°C 61.5°F16.4°C 95% Calm Calm -- 29.81 in1009.5 mb 0.00 in0.0 mm 0.00 in0.0 mm 0.00 in0.0 mm
02:35 AM 63.0°F17.2°C 61.5°F16.4°C 95% Calm Calm -- 29.80 in1009.1 mb 0.00 in0.0 mm 0.00 in0.0 mm 0.00 in0.0 mm
02:40 AM 63.1°F17.3°C 61.7°F16.5°C 95% Calm Calm -- 29.80 in1009.1 mb 0.00 in0.0 mm 0.00 in0.0 mm 0.00 in0.0 mm
02:45 AM 63.2°F17.3°C 61.7°F16.5°C 95% Calm Calm -- 29.79 in1008.8 mb 0.00 in0.0 mm 0.00 in0.0 mm 0.00 in0.0 mm
02:50 AM 63.3°F17.4°C 61.9°F16.6°C 95% Calm Calm -- 29.79 in1008.8 mb 0.00 in0.0 mm 0.00 in0.0 mm 0.00 in0.0 mm
02:55 AM 63.4°F17.4°C 61.9°F16.6°C 95% Calm Calm -- 29.80 in1009.1 mb 0.00 in0.0 mm 0.00 in0.0 mm 0.00 in0.0 mm
03:05 AM 63.5°F17.5°C 62.1°F16.7°C 95% Calm Calm -- 29.80 in1009.1 mb 0.00 in0.0 mm 0.00 in0.0 mm 0.00 in0.0 mm
03:10 AM 63.6°F17.6°C 62.2°F16.8°C 95% Calm Calm -- 29.80 in1009.1 mb 0.00 in0.0 mm 0.00 in0.0 mm 0.00 in0.0 mm
03:15 AM 63.7°F17.6°C 62.2°F16.8°C 95% Calm Calm -- 29.81 in1009.5 mb 0.00 in0.0 mm 0.00 in0.0 mm 0.00 in0.0 mm
03:20 AM 63.8°F17.7°C 62.4°F16.9°C 95% Calm Calm -- 29.81 in1009.5 mb 0.00 in0.0 mm 0.00 in0.0 mm 0.00 in0.0 mm
03:25 AM 64.0°F17.8°C 62.6°F17.0°C 95% Calm Calm -- 29.85 in1010.8 mb 0.00 in0.0 mm 0.00 in0.0 mm 0.00 in0.0 mm
03:30 AM 64.1°F17.8°C 62.6°F17.0°C 95% Calm Calm -- 29.85 in1010.8 mb 0.00 in0.0 mm 0.00 in0.0 mm 0.00 in0.0 mm
03:35 AM 64.1°F17.8°C 62.6°F17.0°C 95% Calm Calm -- 29.86 in1011.2 mb 0.00 in0.0 mm 0.00 in0.0 mm 0.00 in0.0 mm
03:40 AM 64.1°F17.8°C 62.6°F17.0°C 95% Calm Calm -- 29.88 in1011.9 mb 0.00 in0.0 mm 0.00 in0.0 mm 0.00 in0.0 mm
03:45 AM 64.1°F17.8°C 62.6°F17.0°C 95% Calm Calm -- 29.88 in1011.9 mb 0.00 in0.0 mm 0.00 in0.0 mm 0.00 in0.0 mm
03:50 AM 64.2°F17.9°C 62.8°F17.1°C 95% Calm Calm -- 29.86 in1011.2 mb 0.00 in0.0 mm 0.00 in0.0 mm 0.00 in0.0 mm
03:55 AM 64.3°F17.9°C 62.8°F17.1°C 95% Calm Calm -- 29.87 in1011.5 mb 0.00 in0.0 mm 0.00 in0.0 mm 0.00 in0.0 mm
04:00 AM 64.4°F18.0°C 63.0°F17.2°C 95% Calm Calm -- 29.86 in1011.2 mb 0.03 in0.8 mm 0.03 in0.8 mm 0.03 in0.8 mm
04:05 AM 64.3°F17.9°C 62.8°F17.1°C 95% Calm Calm -- 29.88 in1011.9 mb 0.07 in1.8 mm 0.48 in12.2 mm 0.07 in1.8 mm
04:10 AM 64.2°F17.9°C 62.8°F17.1°C 95% Calm Calm -- 29.88 in1011.9 mb 0.12 in3.0 mm 0.60 in15.2 mm 0.12 in3.0 mm
04:15 AM 64.2°F17.9°C 62.8°F17.1°C 95% Calm Calm -- 29.86 in1011.2 mb 0.18 in4.6 mm 0.72 in18.3 mm 0.18 in4.6 mm
04:20 AM 64.1°F17.8°C 62.6°F17.0°C 95% Calm Calm -- 29.85 in1010.8 mb 0.24 in6.1 mm 0.72 in18.3 mm 0.24 in6.1 mm
04:25 AM 64.1°F17.8°C 62.6°F17.0°C 95% Calm Calm -- 29.83 in1010.2 mb 0.30 in7.6 mm 0.72 in18.3 mm 0.30 in7.6 mm
04:30 AM 64.0°F17.8°C 62.6°F17.0°C 95% Calm Calm -- 29.82 in1009.8 mb 0.34 in8.6 mm 0.48 in12.2 mm 0.34 in8.6 mm
04:35 AM 64.0°F17.8°C 62.6°F17.0°C 95% Calm Calm -- 29.82 in1009.8 mb 0.39 in9.9 mm 0.60 in15.2 mm 0.39 in9.9 mm
04:40 AM 63.9°F17.7°C 62.4°F16.9°C 95% Calm Calm -- 29.82 in1009.8 mb 0.42 in10.7 mm 0.36 in9.1 mm 0.42 in10.7 mm
04:45 AM 63.9°F17.7°C 62.4°F16.9°C 95% Calm Calm -- 29.83 in1010.2 mb 0.45 in11.4 mm 0.36 in9.1 mm 0.45 in11.4 mm
04:50 AM 63.8°F17.7°C 62.4°F16.9°C 95% Calm Calm -- 29.83 in1010.2 mb 0.47 in11.9 mm 0.24 in6.1 mm 0.47 in11.9 mm
04:55 AM 63.8°F17.7°C 62.4°F16.9°C 95% Calm Calm -- 29.84 in1010.5 mb 0.48 in12.2 mm 0.12 in3.0 mm 0.48 in12.2 mm
05:00 AM 63.8°F17.7°C 62.4°F16.9°C 95% Calm Calm -- 29.84 in1010.5 mb 0.46 in11.7 mm 0.00 in0.0 mm 0.49 in12.4 mm
05:05 AM 63.8°F17.7°C 62.4°F16.9°C 95% Calm Calm -- 29.85 in1010.8 mb 0.42 in10.7 mm 0.00 in0.0 mm 0.49 in12.4 mm
05:10 AM 63.8°F17.7°C 62.4°F16.9°C 95% Calm Calm -- 29.85 in1010.8 mb 0.37 in9.4 mm 0.00 in0.0 mm 0.49 in12.4 mm
05:15 AM 63.8°F17.7°C 62.4°F16.9°C 95% Calm Calm -- 29.86 in1011.2 mb 0.31 in7.9 mm 0.00 in0.0 mm 0.49 in12.4 mm
05:20 AM 63.8°F17.7°C 62.4°F16.9°C 95% Calm Calm -- 29.86 in1011.2 mb 0.25 in6.4 mm 0.00 in0.0 mm 0.49 in12.4 mm
05:25 AM 63.9°F17.7°C 62.4°F16.9°C 95% Calm Calm -- 29.86 in1011.2 mb 0.19 in4.8 mm 0.00 in0.0 mm 0.49 in12.4 mm
05:30 AM 63.8°F17.7°C 62.4°F16.9°C 95% Calm Calm -- 29.87 in1011.5 mb 0.15 in3.8 mm 0.00 in0.0 mm 0.49 in12.4 mm
05:35 AM 63.8°F17.7°C 62.4°F16.9°C 95% Calm Calm -- 29.87 in1011.5 mb 0.11 in2.8 mm 0.00 in0.0 mm 0.49 in12.4 mm
05:40 AM 63.8°F17.7°C 62.4°F16.9°C 95% Calm Calm -- 29.87 in1011.5 mb 0.07 in1.8 mm 0.00 in0.0 mm 0.49 in12.4 mm
05:45 AM 63.8°F17.7°C 62.4°F16.9°C 95% Calm Calm -- 29.88 in1011.9 mb 0.04 in1.0 mm 0.00 in0.0 mm 0.49 in12.4 mm
05:50 AM 63.8°F17.7°C 62.4°F16.9°C 95% Calm Calm -- 29.87 in1011.5 mb 0.02 in0.5 mm 0.00 in0.0 mm 0.49 in12.4 mm
05:55 AM 63.8°F17.7°C 62.4°F16.9°C 95% Calm Calm -- 29.87 in1011.5 mb 0.01 in0.3 mm 0.00 in0.0 mm 0.49 in12.4 mm
06:00 AM 63.8°F17.7°C 62.4°F16.9°C 95% Calm Calm -- 29.87 in1011.5 mb 0.00 in0.0 mm 0.00 in0.0 mm 0.49 in12.4 mm
06:05 AM 63.8°F17.7°C 62.4°F16.9°C 95% Calm Calm -- 29.87 in1011.5 mb 0.00 in0.0 mm 0.00 in0.0 mm 0.49 in12.4 mm
06:10 AM 63.8°F17.7°C 62.4°F16.9°C 95% Calm Calm -- 29.86 in1011.2 mb 0.00 in0.0 mm 0.00 in0.0 mm 0.49 in12.4 mm
06:15 AM 63.8°F17.7°C 62.4°F16.9°C 95% Calm Calm -- 29.86 in1011.2 mb 0.00 in0.0 mm 0.00 in0.0 mm 0.49 in12.4 mm
06:20 AM 63.8°F17.7°C 62.4°F16.9°C 95% Calm Calm -- 29.87 in1011.5 mb 0.00 in0.0 mm 0.00 in0.0 mm 0.49 in12.4 mm
06:25 AM 63.8°F17.7°C 62.4°F16.9°C 95% Calm Calm -- 29.87 in1011.5 mb 0.00 in0.0 mm 0.00 in0.0 mm 0.49 in12.4 mm
06:30 AM 63.9°F17.7°C 62.4°F16.9°C 95% Calm Calm -- 29.86 in1011.2 mb 0.00 in0.0 mm 0.00 in0.0 mm 0.49 in12.4 mm
06:35 AM 63.9°F17.7°C 62.4°F16.9°C 95% Calm Calm -- 29.86 in1011.2 mb 0.00 in0.0 mm 0.00 in0.0 mm 0.49 in12.4 mm
06:40 AM 63.9°F17.7°C 62.4°F16.9°C 95% Calm Calm -- 29.87 in1011.5 mb 0.00 in0.0 mm 0.00 in0.0 mm 0.49 in12.4 mm
06:45 AM 63.9°F17.7°C 62.4°F16.9°C 95% Calm Calm -- 29.86 in1011.2 mb 0.00 in0.0 mm 0.00 in0.0 mm 0.49 in12.4 mm
06:50 AM 63.9°F17.7°C 62.4°F16.9°C 95% Calm Calm -- 29.86 in1011.2 mb 0.00 in0.0 mm 0.00 in0.0 mm 0.49 in12.4 mm
06:55 AM 63.9°F17.7°C 62.4°F16.9°C 95% Calm Calm -- 29.86 in1011.2 mb 0.00 in0.0 mm 0.00 in0.0 mm 0.49 in12.4 mm
07:00 AM 63.9°F17.7°C 62.4°F16.9°C 95% Calm Calm -- 29.87 in1011.5 mb 0.00 in0.0 mm 0.00 in0.0 mm 0.49 in12.4 mm
07:05 AM 63.9°F17.7°C 62.4°F16.9°C 95% Calm Calm -- 29.87 in1011.5 mb 0.00 in0.0 mm 0.00 in0.0 mm 0.49 in12.4 mm
07:10 AM 63.9°F17.7°C 62.4°F16.9°C 95% Calm Calm -- 29.87 in1011.5 mb 0.00 in0.0 mm 0.00 in0.0 mm 0.49 in12.4 mm
07:15 AM 63.9°F17.7°C 62.4°F16.9°C 95% Calm Calm -- 29.87 in1011.5 mb 0.00 in0.0 mm 0.00 in0.0 mm 0.49 in12.4 mm
07:20 AM 63.8°F17.7°C 62.4°F16.9°C 95% Calm Calm -- 29.88 in1011.9 mb 0.00 in0.0 mm 0.00 in0.0 mm 0.49 in12.4 mm
07:25 AM 63.9°F17.7°C 62.4°F16.9°C 95% Calm Calm -- 29.88 in1011.9 mb 0.00 in0.0 mm 0.00 in0.0 mm 0.49 in12.4 mm
07:30 AM 63.8°F17.7°C 62.4°F16.9°C 95% Calm Calm -- 29.87 in1011.5 mb 0.00 in0.0 mm 0.00 in0.0 mm 0.49 in12.4 mm
07:35 AM 63.8°F17.7°C 62.4°F16.9°C 95% Calm Calm -- 29.87 in1011.5 mb 0.00 in0.0 mm 0.00 in0.0 mm 0.49 in12.4 mm
07:40 AM 63.8°F17.7°C 62.4°F16.9°C 95% Calm Calm -- 29.87 in1011.5 mb 0.00 in0.0 mm 0.00 in0.0 mm 0.49 in12.4 mm
07:45 AM 63.8°F17.7°C 62.4°F16.9°C 95% Calm Calm -- 29.88 in1011.9 mb 0.00 in0.0 mm 0.00 in0.0 mm 0.49 in12.4 mm
07:50 AM 63.8°F17.7°C 62.4°F16.9°C 95% Calm Calm -- 29.88 in1011.9 mb 0.00 in0.0 mm 0.00 in0.0 mm 0.49 in12.4 mm
07:55 AM 63.8°F17.7°C 62.4°F16.9°C 95% Calm Calm -- 29.88 in1011.9 mb 0.00 in0.0 mm 0.00 in0.0 mm 0.49 in12.4 mm
08:00 AM 63.8°F17.7°C 62.4°F16.9°C 95% Calm Calm -- 29.88 in1011.9 mb 0.00 in0.0 mm 0.00 in0.0 mm 0.49 in12.4 mm
08:05 AM 63.8°F17.7°C 62.4°F16.9°C 95% Calm Calm -- 29.89 in1012.2 mb 0.00 in0.0 mm 0.00 in0.0 mm 0.49 in12.4 mm
08:10 AM 63.8°F17.7°C 62.4°F16.9°C 95% Calm Calm -- 29.89 in1012.2 mb 0.00 in0.0 mm 0.00 in0.0 mm 0.49 in12.4 mm
08:15 AM 63.8°F17.7°C 62.4°F16.9°C 95% Calm Calm -- 29.91 in1012.9 mb 0.00 in0.0 mm 0.00 in0.0 mm 0.49 in12.4 mm
08:20 AM 63.8°F17.7°C 62.4°F16.9°C 95% Calm Calm -- 29.91 in1012.9 mb 0.00 in0.0 mm 0.00 in0.0 mm 0.49 in12.4 mm
08:25 AM 63.8°F17.7°C 62.4°F16.9°C 95% Calm Calm -- 29.92 in1013.2 mb 0.00 in0.0 mm 0.00 in0.0 mm 0.49 in12.4 mm
08:30 AM 63.8°F17.7°C 62.4°F16.9°C 95% Calm Calm -- 29.93 in1013.5 mb 0.00 in0.0 mm 0.00 in0.0 mm 0.49 in12.4 mm
08:35 AM 63.7°F17.6°C 62.2°F16.8°C 95% Calm Calm -- 29.93 in1013.5 mb 0.01 in0.3 mm 0.12 in3.0 mm 0.50 in12.7 mm
08:40 AM 63.7°F17.6°C 62.2°F16.8°C 95% Calm Calm -- 29.94 in1013.9 mb 0.01 in0.3 mm 0.00 in0.0 mm 0.50 in12.7 mm
08:45 AM 63.7°F17.6°C 62.2°F16.8°C 95% Calm Calm -- 29.95 in1014.2 mb 0.02 in0.5 mm 0.12 in3.0 mm 0.51 in13.0 mm
08:50 AM 63.7°F17.6°C 62.2°F16.8°C 95% Calm Calm -- 29.94 in1013.9 mb 0.02 in0.5 mm 0.00 in0.0 mm 0.51 in13.0 mm
08:55 AM 63.7°F17.6°C 62.2°F16.8°C 95% Calm Calm -- 29.93 in1013.5 mb 0.03 in0.8 mm 0.12 in3.0 mm 0.52 in13.2 mm
09:00 AM 63.8°F17.7°C 62.4°F16.9°C 95% Calm Calm -- 29.92 in1013.2 mb 0.03 in0.8 mm 0.00 in0.0 mm 0.52 in13.2 mm
09:05 AM 63.8°F17.7°C 62.4°F16.9°C 95% Calm Calm -- 29.91 in1012.9 mb 0.04 in1.0 mm 0.12 in3.0 mm 0.53 in13.5 mm
09:10 AM 63.8°F17.7°C 62.4°F16.9°C 95% Calm Calm -- 29.89 in1012.2 mb 0.05 in1.3 mm 0.12 in3.0 mm 0.54 in13.7 mm
09:15 AM 63.8°F17.7°C 62.4°F16.9°C 95% Calm Calm -- 29.89 in1012.2 mb 0.08 in2.0 mm 0.36 in9.1 mm 0.57 in14.5 mm
09:20 AM 63.8°F17.7°C 62.4°F16.9°C 95% Calm Calm -- 29.88 in1011.9 mb 0.08 in2.0 mm 0.00 in0.0 mm 0.57 in14.5 mm
09:25 AM 63.7°F17.6°C 62.2°F16.8°C 95% Calm Calm -- 29.89 in1012.2 mb 0.08 in2.0 mm 0.00 in0.0 mm 0.57 in14.5 mm
09:30 AM 63.7°F17.6°C 62.2°F16.8°C 95% Calm Calm -- 29.95 in1014.2 mb 0.09 in2.3 mm 0.12 in3.0 mm 0.58 in14.7 mm
09:35 AM 63.8°F17.7°C 62.4°F16.9°C 95% Calm Calm -- 29.99 in1015.6 mb 0.10 in2.5 mm 0.12 in3.0 mm 0.60 in15.2 mm
09:40 AM 63.8°F17.7°C 62.4°F16.9°C 95% Calm Calm -- 30.01 in1016.3 mb 0.13 in3.3 mm 0.36 in9.1 mm 0.63 in16.0 mm
09:45 AM 63.8°F17.7°C 62.4°F16.9°C 95% Calm Calm -- 29.98 in1015.2 mb 0.17 in4.3 mm 0.48 in12.2 mm 0.68 in17.3 mm
09:50 AM 63.9°F17.7°C 62.4°F16.9°C 95% Calm Calm 3.0 mph4.8 kmh 29.94 in1013.9 mb 0.21 in5.3 mm 0.48 in12.2 mm 0.72 in18.3 mm
09:55 AM 63.8°F17.7°C 62.4°F16.9°C 95% Calm Calm -- 29.92 in1013.2 mb 0.25 in6.4 mm 0.48 in12.2 mm 0.77 in19.6 mm
10:00 AM 63.9°F17.7°C 62.4°F16.9°C 95% Calm Calm -- 29.95 in1014.2 mb 0.30 in7.6 mm 0.05 in1.3 mm 0.82 in20.8 mm
10:05 AM 63.9°F17.7°C 62.4°F16.9°C 95% Calm Calm -- 29.95 in1014.2 mb 0.34 in8.6 mm 0.48 in12.2 mm 0.87 in22.1 mm
10:10 AM 64.0°F17.8°C 62.6°F17.0°C 95% Calm Calm -- 29.94 in1013.9 mb 0.38 in9.7 mm 0.48 in12.2 mm 0.92 in23.4 mm
10:15 AM 64.0°F17.8°C 62.6°F17.0°C 95% Calm Calm 2.0 mph3.2 kmh 29.93 in1013.5 mb 0.40 in10.2 mm 0.24 in6.1 mm 0.97 in24.6 mm
10:20 AM 64.0°F17.8°C 62.6°F17.0°C 95% Calm Calm -- 29.93 in1013.5 mb 0.45 in11.4 mm 0.60 in15.2 mm 1.02 in25.9 mm
10:25 AM 64.0°F17.8°C 62.6°F17.0°C 95% Calm Calm -- 29.95 in1014.2 mb 0.49 in12.4 mm 0.48 in12.2 mm 1.06 in26.9 mm
10:30 AM 64.1°F17.8°C 62.6°F17.0°C 95% Calm Calm -- 29.96 in1014.6 mb 0.52 in13.2 mm 0.36 in9.1 mm 1.10 in27.9 mm
10:35 AM 64.0°F17.8°C 62.6°F17.0°C 95% Calm Calm -- 29.94 in1013.9 mb 0.55 in14.0 mm 0.36 in9.1 mm 1.14 in29.0 mm
10:40 AM 64.0°F17.8°C 62.6°F17.0°C 95% Calm Calm -- 29.94 in1013.9 mb 0.55 in14.0 mm 0.00 in0.0 mm 1.18 in30.0 mm
10:45 AM 63.9°F17.7°C 62.4°F16.9°C 95% Calm Calm -- 29.95 in1014.2 mb 0.53 in13.5 mm 0.00 in0.0 mm 1.21 in30.7 mm
10:50 AM 63.8°F17.7°C 62.4°F16.9°C 95% Calm Calm -- 29.95 in1014.2 mb 0.52 in13.2 mm 0.00 in0.0 mm 1.24 in31.5 mm
10:55 AM 63.8°F17.7°C 62.4°F16.9°C 95% Calm Calm -- 29.94 in1013.9 mb 0.50 in12.7 mm 0.00 in0.0 mm 1.27 in32.3 mm
11:00 AM 63.7°F17.6°C 62.2°F16.8°C 95% Calm Calm -- 29.93 in1013.5 mb 0.48 in12.2 mm 0.00 in0.0 mm 1.30 in33.0 mm
11:05 AM 63.7°F17.6°C 62.2°F16.8°C 95% Calm Calm -- 29.93 in1013.5 mb 0.46 in11.7 mm 0.00 in0.0 mm 1.33 in33.8 mm
11:10 AM 63.7°F17.6°C 62.2°F16.8°C 95% Calm Calm -- 29.93 in1013.5 mb 0.44 in11.2 mm 0.00 in0.0 mm 1.36 in34.5 mm
11:15 AM 63.6°F17.6°C 62.2°F16.8°C 95% Calm Calm -- 29.92 in1013.2 mb 0.41 in10.4 mm 0.00 in0.0 mm 1.38 in35.1 mm
11:20 AM 63.6°F17.6°C 62.2°F16.8°C 95% Calm Calm -- 29.92 in1013.2 mb 0.39 in9.9 mm 0.00 in0.0 mm 1.41 in35.8 mm
11:25 AM 63.5°F17.5°C 62.1°F16.7°C 95% Calm Calm -- 29.91 in1012.9 mb 0.37 in9.4 mm 0.00 in0.0 mm 1.43 in36.3 mm
11:30 AM 63.4°F17.4°C 61.9°F16.6°C 95% Calm Calm -- 29.92 in1013.2 mb 0.35 in8.9 mm 0.00 in0.0 mm 1.45 in36.8 mm
11:35 AM 63.5°F17.5°C 62.1°F16.7°C 95% Calm Calm -- 29.93 in1013.5 mb 0.33 in8.4 mm 0.00 in0.0 mm 1.47 in37.3 mm
11:40 AM 63.5°F17.5°C 62.1°F16.7°C 95% Calm Calm -- 29.94 in1013.9 mb 0.30 in7.6 mm 0.00 in0.0 mm 1.48 in37.6 mm
11:45 AM 63.5°F17.5°C 62.1°F16.7°C 95% Calm Calm -- 29.95 in1014.2 mb 0.28 in7.1 mm 0.00 in0.0 mm 1.49 in37.8 mm
11:50 AM 63.6°F17.6°C 62.2°F16.8°C 95% Calm Calm -- 29.94 in1013.9 mb 0.25 in6.4 mm 0.00 in0.0 mm 1.49 in37.8 mm
11:55 AM 63.7°F17.6°C 62.2°F16.8°C 95% Calm Calm -- 29.94 in1013.9 mb 0.22 in5.6 mm 0.00 in0.0 mm 1.49 in37.8 mm
12:00 PM 64.2°F17.9°C 62.8°F17.1°C 95% Calm Calm -- 29.93 in1013.5 mb 0.19 in4.8 mm 0.00 in0.0 mm 1.49 in37.8 mm
12:05 PM 64.5°F18.1°C 63.1°F17.3°C 95% Calm Calm -- 29.94 in1013.9 mb 0.16 in4.1 mm 0.00 in0.0 mm 1.49 in37.8 mm
12:10 PM 64.7°F18.2°C 63.3°F17.4°C 95% Calm Calm -- 29.95 in1014.2 mb 0.13 in3.3 mm 0.00 in0.0 mm 1.49 in37.8 mm
12:15 PM 65.1°F18.4°C 63.7°F17.6°C 95% Calm Calm -- 29.95 in1014.2 mb 0.11 in2.8 mm 0.00 in0.0 mm 1.49 in37.8 mm
12:20 PM 65.5°F18.6°C 64.0°F17.8°C 95% Calm Calm -- 29.95 in1014.2 mb 0.08 in2.0 mm 0.00 in0.0 mm 1.49 in37.8 mm
12:25 PM 65.4°F18.6°C 64.0°F17.8°C 95% Calm Calm -- 29.95 in1014.2 mb 0.06 in1.5 mm 0.00 in0.0 mm 1.49 in37.8 mm
12:30 PM 65.3°F18.5°C 63.9°F17.7°C 95% Calm Calm -- 29.94 in1013.9 mb 0.04 in1.0 mm 0.00 in0.0 mm 1.49 in37.8 mm
12:35 PM 65.3°F18.5°C 63.9°F17.7°C 95% Calm Calm -- 29.93 in1013.5 mb 0.05 in1.3 mm 0.12 in3.0 mm 1.52 in38.6 mm
12:40 PM 65.2°F18.4°C 63.7°F17.6°C 95% Calm Calm -- 29.92 in1013.2 mb 0.07 in1.8 mm 0.24 in6.1 mm 1.55 in39.4 mm
12:45 PM 65.0°F18.3°C 63.7°F17.6°C 96% Calm Calm 1.0 mph1.6 kmh 29.92 in1013.2 mb 0.08 in2.0 mm 0.12 in3.0 mm 1.57 in39.9 mm
12:50 PM 65.3°F18.5°C 63.9°F17.7°C 95% Calm Calm -- 29.91 in1012.9 mb 0.09 in2.3 mm 0.12 in3.0 mm 1.58 in40.1 mm
12:55 PM 65.6°F18.7°C 64.4°F18.0°C 96% Calm Calm -- 29.92 in1013.2 mb 0.09 in2.3 mm 0.00 in0.0 mm 1.58 in40.1 mm
01:00 PM 66.4°F19.1°C 64.9°F18.3°C 95% Calm Calm -- 29.93 in1013.5 mb 0.09 in2.3 mm 0.00 in0.0 mm 1.58 in40.1 mm
01:05 PM 67.2°F19.6°C 65.8°F18.8°C 95% Calm Calm -- 29.93 in1013.5 mb 0.09 in2.3 mm 0.00 in0.0 mm 1.58 in40.1 mm
01:10 PM 67.7°F19.8°C 66.2°F19.0°C 95% Calm Calm -- 29.93 in1013.5 mb 0.09 in2.3 mm 0.00 in0.0 mm 1.58 in40.1 mm
01:15 PM 67.7°F19.8°C 66.2°F19.0°C 95% Calm Calm -- 29.93 in1013.5 mb 0.09 in2.3 mm 0.00 in0.0 mm 1.58 in40.1 mm
01:20 PM 68.1°F20.1°C 66.9°F19.4°C 96% Calm Calm -- 29.92 in1013.2 mb 0.09 in2.3 mm 0.00 in0.0 mm 1.58 in40.1 mm
01:25 PM 68.3°F20.2°C 66.9°F19.4°C 95% Calm Calm -- 29.93 in1013.5 mb 0.09 in2.3 mm 0.00 in0.0 mm 1.58 in40.1 mm
01:30 PM 68.9°F20.5°C 67.5°F19.7°C 95% Calm Calm -- 29.92 in1013.2 mb 0.09 in2.3 mm 0.00 in0.0 mm 1.58 in40.1 mm
01:35 PM 69.4°F20.8°C 68.0°F20.0°C 95% Calm Calm -- 29.92 in1013.2 mb 0.06 in1.5 mm 0.00 in0.0 mm 1.58 in40.1 mm
01:40 PM 69.9°F21.1°C 68.5°F20.3°C 95% Calm Calm -- 29.92 in1013.2 mb 0.03 in0.8 mm 0.00 in0.0 mm 1.58 in40.1 mm
01:45 PM 70.0°F21.1°C 67.8°F19.9°C 93% Calm Calm -- 29.91 in1012.9 mb 0.01 in0.3 mm 0.00 in0.0 mm 1.58 in40.1 mm
01:50 PM 70.6°F21.4°C 68.4°F20.2°C 93% Calm Calm -- 29.90 in1012.5 mb 0.00 in0.0 mm 0.00 in0.0 mm 1.58 in40.1 mm
01:55 PM 71.8°F22.1°C 69.3°F20.7°C 92% Calm Calm -- 29.89 in1012.2 mb 0.00 in0.0 mm 0.00 in0.0 mm 1.58 in40.1 mm
02:00 PM 72.2°F22.3°C 69.1°F20.6°C 90% Calm Calm -- 29.88 in1011.9 mb 0.00 in0.0 mm 0.00 in0.0 mm 1.58 in40.1 mm
02:05 PM 71.8°F22.1°C 68.4°F20.2°C 89% Calm Calm -- 29.88 in1011.9 mb 0.00 in0.0 mm 0.00 in0.0 mm 1.58 in40.1 mm
02:10 PM 71.3°F21.8°C 67.5°F19.7°C 88% Calm Calm -- 29.87 in1011.5 mb 0.00 in0.0 mm 0.00 in0.0 mm 1.58 in40.1 mm
02:15 PM 71.7°F22.1°C 68.4°F20.2°C 89% Calm Calm -- 29.87 in1011.5 mb 0.00 in0.0 mm 0.00 in0.0 mm 1.58 in40.1 mm
02:20 PM 71.9°F22.2°C 68.2°F20.1°C 88% Calm Calm -- 29.89 in1012.2 mb 0.00 in0.0 mm 0.00 in0.0 mm 1.58 in40.1 mm
02:25 PM 72.5°F22.5°C 68.4°F20.2°C 87% Calm Calm -- 29.89 in1012.2 mb 0.00 in0.0 mm 0.00 in0.0 mm 1.58 in40.1 mm
02:30 PM 72.9°F22.7°C 68.7°F20.4°C 87% Calm Calm -- 29.91 in1012.9 mb 0.00 in0.0 mm 0.00 in0.0 mm 1.58 in40.1 mm
02:35 PM 73.2°F22.9°C 68.7°F20.4°C 86% Calm Calm -- 29.90 in1012.5 mb 0.00 in0.0 mm 0.00 in0.0 mm 1.58 in40.1 mm
02:40 PM 73.2°F22.9°C 68.4°F20.2°C 85% Calm Calm -- 29.90 in1012.5 mb 0.00 in0.0 mm 0.00 in0.0 mm 1.58 in40.1 mm
02:45 PM 73.4°F23.0°C 68.2°F20.1°C 84% Calm Calm -- 29.89 in1012.2 mb 0.00 in0.0 mm 0.00 in0.0 mm 1.58 in40.1 mm
02:50 PM 73.8°F23.2°C 68.5°F20.3°C 84% Calm Calm -- 29.89 in1012.2 mb 0.00 in0.0 mm 0.00 in0.0 mm 1.58 in40.1 mm
02:55 PM 74.6°F23.7°C 69.8°F21.0°C 85% Calm Calm -- 29.88 in1011.9 mb 0.00 in0.0 mm 0.00 in0.0 mm 1.58 in40.1 mm
03:00 PM 75.4°F24.1°C 69.8°F21.0°C 83% Calm Calm -- 29.88 in1011.9 mb 0.00 in0.0 mm 0.00 in0.0 mm 1.58 in40.1 mm
03:05 PM 75.4°F24.1°C 69.8°F21.0°C 83% Calm Calm -- 29.88 in1011.9 mb 0.00 in0.0 mm 0.00 in0.0 mm 1.58 in40.1 mm
03:10 PM 75.0°F23.9°C 69.4°F20.8°C 83% Calm Calm -- 29.88 in1011.9 mb 0.00 in0.0 mm 0.00 in0.0 mm 1.58 in40.1 mm
03:15 PM 75.1°F23.9°C 69.1°F20.6°C 82% Calm Calm -- 29.88 in1011.9 mb 0.00 in0.0 mm 0.00 in0.0 mm 1.58 in40.1 mm
03:20 PM 75.5°F24.2°C 70.0°F21.1°C 83% Calm Calm -- 29.87 in1011.5 mb 0.00 in0.0 mm 0.00 in0.0 mm 1.58 in40.1 mm
03:25 PM 75.9°F24.4°C 70.0°F21.1°C 82% Calm Calm -- 29.86 in1011.2 mb 0.00 in0.0 mm 0.00 in0.0 mm 1.58 in40.1 mm
03:30 PM 76.5°F24.7°C 70.2°F21.2°C 81% Calm Calm -- 29.86 in1011.2 mb 0.00 in0.0 mm 0.00 in0.0 mm 1.58 in40.1 mm
03:35 PM 77.0°F25.0°C 70.7°F21.5°C 81% Calm Calm -- 29.86 in1011.2 mb 0.00 in0.0 mm 0.00 in0.0 mm 1.58 in40.1 mm
03:40 PM 77.3°F25.2°C 70.7°F21.5°C 80% Calm Calm -- 29.86 in1011.2 mb 0.00 in0.0 mm 0.00 in0.0 mm 1.58 in40.1 mm
03:45 PM 77.5°F25.3°C 70.5°F21.4°C 79% Calm Calm -- 29.86 in1011.2 mb 0.00 in0.0 mm 0.00 in0.0 mm 1.58 in40.1 mm
03:50 PM 77.9°F25.5°C 70.9°F21.6°C 79% Calm Calm -- 29.85 in1010.8 mb 0.00 in0.0 mm 0.00 in0.0 mm 1.58 in40.1 mm
03:55 PM 77.6°F25.3°C 69.8°F21.0°C 77% Calm Calm -- 29.86 in1011.2 mb 0.00 in0.0 mm 0.00 in0.0 mm 1.58 in40.1 mm
04:00 PM 77.6°F25.3°C 70.5°F21.4°C 79% Calm Calm -- 29.85 in1010.8 mb 0.00 in0.0 mm 0.00 in0.0 mm 1.58 in40.1 mm
04:05 PM 77.8°F25.4°C 71.1°F21.7°C 80% Calm Calm -- 29.85 in1010.8 mb 0.00 in0.0 mm 0.00 in0.0 mm 1.58 in40.1 mm
04:10 PM 78.2°F25.7°C 70.9°F21.6°C 78% Calm Calm -- 29.85 in1010.8 mb 0.00 in0.0 mm 0.00 in0.0 mm 1.58 in40.1 mm
04:15 PM 78.2°F25.7°C 70.9°F21.6°C 78% Calm Calm -- 29.85 in1010.8 mb 0.00 in0.0 mm 0.00 in0.0 mm 1.58 in40.1 mm
04:20 PM 78.5°F25.8°C 71.8°F22.1°C 80% Calm Calm -- 29.85 in1010.8 mb 0.00 in0.0 mm 0.00 in0.0 mm 1.58 in40.1 mm
04:25 PM 78.5°F25.8°C 70.2°F21.2°C 76% Calm Calm -- 29.85 in1010.8 mb 0.00 in0.0 mm 0.00 in0.0 mm 1.58 in40.1 mm
04:30 PM 78.8°F26.0°C 71.4°F21.9°C 78% Calm Calm -- 29.85 in1010.8 mb 0.00 in0.0 mm 0.00 in0.0 mm 1.58 in40.1 mm
04:35 PM 79.0°F26.1°C 70.7°F21.5°C 76% Calm Calm -- 29.85 in1010.8 mb 0.00 in0.0 mm 0.00 in0.0 mm 1.58 in40.1 mm
04:40 PM 78.9°F26.1°C 71.1°F21.7°C 77% Calm Calm -- 29.85 in1010.8 mb 0.00 in0.0 mm 0.00 in0.0 mm 1.58 in40.1 mm
04:45 PM 78.9°F26.1°C 70.7°F21.5°C 76% Calm Calm -- 29.85 in1010.8 mb 0.00 in0.0 mm 0.00 in0.0 mm 1.58 in40.1 mm
04:50 PM 78.8°F26.0°C 70.5°F21.4°C 76% Calm Calm -- 29.85 in1010.8 mb 0.00 in0.0 mm 0.00 in0.0 mm 1.58 in40.1 mm
04:55 PM 78.8°F26.0°C 70.5°F21.4°C 76% Calm Calm -- 29.85 in1010.8 mb 0.19 in4.8 mm 2.28 in57.9 mm 1.77 in45.0 mm
05:00 PM 79.0°F26.1°C 71.6°F22.0°C 78% Calm Calm -- 29.85 in1010.8 mb 0.19 in4.8 mm 0.00 in0.0 mm 1.77 in45.0 mm
05:05 PM 79.3°F26.3°C 71.4°F21.9°C 77% Calm Calm -- 29.84 in1010.5 mb 0.19 in4.8 mm 0.00 in0.0 mm 1.77 in45.0 mm
05:10 PM 79.5°F26.4°C 72.0°F22.2°C 78% Calm Calm -- 29.84 in1010.5 mb 0.19 in4.8 mm 0.00 in0.0 mm 1.77 in45.0 mm
05:15 PM 79.7°F26.5°C 72.1°F22.3°C 78% Calm Calm -- 29.84 in1010.5 mb 0.19 in4.8 mm 0.00 in0.0 mm 1.77 in45.0 mm
05:20 PM 79.8°F26.6°C 72.0°F22.2°C 77% Calm Calm -- 29.84 in1010.5 mb 0.19 in4.8 mm 0.00 in0.0 mm 1.77 in45.0 mm
05:25 PM 79.7°F26.5°C 71.1°F21.7°C 75% Calm Calm -- 29.84 in1010.5 mb 0.19 in4.8 mm 0.00 in0.0 mm 1.77 in45.0 mm
05:30 PM 79.3°F26.3°C 70.3°F21.3°C 74% Calm Calm -- 29.83 in1010.2 mb 0.19 in4.8 mm 0.00 in0.0 mm 1.77 in45.0 mm
05:35 PM 79.1°F26.2°C 70.9°F21.6°C 76% Calm Calm -- 29.83 in1010.2 mb 0.19 in4.8 mm 0.00 in0.0 mm 1.77 in45.0 mm
05:40 PM 79.0°F26.1°C 70.7°F21.5°C 76% Calm Calm -- 29.82 in1009.8 mb 0.19 in4.8 mm 0.00 in0.0 mm 1.77 in45.0 mm
05:45 PM 79.1°F26.2°C 70.2°F21.2°C 74% Calm Calm -- 29.82 in1009.8 mb 0.19 in4.8 mm 0.00 in0.0 mm 1.77 in45.0 mm
05:50 PM 79.2°F26.2°C 70.5°F21.4°C 75% Calm Calm -- 29.82 in1009.8 mb 0.19 in4.8 mm 0.00 in0.0 mm 1.77 in45.0 mm
05:55 PM 79.1°F26.2°C 70.5°F21.4°C 75% Calm Calm -- 29.82 in1009.8 mb 0.09 in2.3 mm 0.00 in0.0 mm 1.77 in45.0 mm
06:00 PM 79.2°F26.2°C 71.2°F21.8°C 77% Calm Calm -- 29.82 in1009.8 mb 0.00 in0.0 mm 0.00 in0.0 mm 1.77 in45.0 mm
06:05 PM 79.1°F26.2°C 70.9°F21.6°C 76% Calm Calm -- 29.82 in1009.8 mb 0.00 in0.0 mm 0.00 in0.0 mm 1.77 in45.0 mm
06:10 PM 79.1°F26.2°C 71.2°F21.8°C 77% Calm Calm -- 29.82 in1009.8 mb 0.00 in0.0 mm 0.00 in0.0 mm 1.77 in45.0 mm
06:15 PM 78.9°F26.1°C 71.1°F21.7°C 77% Calm Calm -- 29.82 in1009.8 mb 0.00 in0.0 mm 0.00 in0.0 mm 1.77 in45.0 mm
06:20 PM 78.7°F25.9°C 71.2°F21.8°C 78% Calm Calm -- 29.82 in1009.8 mb 0.00 in0.0 mm 0.00 in0.0 mm 1.77 in45.0 mm
06:25 PM 78.4°F25.8°C 70.7°F21.5°C 77% Calm Calm -- 29.82 in1009.8 mb 0.00 in0.0 mm 0.00 in0.0 mm 1.77 in45.0 mm
06:30 PM 78.3°F25.7°C 70.9°F21.6°C 78% Calm Calm -- 29.81 in1009.5 mb 0.00 in0.0 mm 0.00 in0.0 mm 1.77 in45.0 mm
06:35 PM 78.0°F25.6°C 70.7°F21.5°C 78% Calm Calm -- 29.81 in1009.5 mb 0.00 in0.0 mm 0.00 in0.0 mm 1.77 in45.0 mm
06:40 PM 77.8°F25.4°C 70.3°F21.3°C 78% Calm Calm -- 29.81 in1009.5 mb 0.00 in0.0 mm 0.00 in0.0 mm 1.77 in45.0 mm
06:45 PM 77.7°F25.4°C 71.1°F21.7°C 80% Calm Calm -- 29.80 in1009.1 mb 0.00 in0.0 mm 0.00 in0.0 mm 1.77 in45.0 mm
06:50 PM 77.7°F25.4°C 70.7°F21.5°C 79% Calm Calm -- 29.80 in1009.1 mb 0.00 in0.0 mm 0.00 in0.0 mm 1.77 in45.0 mm
06:55 PM 77.8°F25.4°C 70.7°F21.5°C 79% Calm Calm -- 29.80 in1009.1 mb 0.00 in0.0 mm 0.00 in0.0 mm 1.77 in45.0 mm
07:00 PM 77.6°F25.3°C 70.5°F21.4°C 79% Calm Calm -- 29.79 in1008.8 mb 0.00 in0.0 mm 0.00 in0.0 mm 1.77 in45.0 mm
07:05 PM 77.6°F25.3°C 70.9°F21.6°C 80% Calm Calm -- 29.79 in1008.8 mb 0.00 in0.0 mm 0.00 in0.0 mm 1.77 in45.0 mm
07:10 PM 77.5°F25.3°C 71.2°F21.8°C 81% Calm Calm -- 29.79 in1008.8 mb 0.00 in0.0 mm 0.00 in0.0 mm 1.77 in45.0 mm
07:15 PM 77.3°F25.2°C 71.1°F21.7°C 81% Calm Calm -- 29.79 in1008.8 mb 0.00 in0.0 mm 0.00 in0.0 mm 1.77 in45.0 mm
07:20 PM 77.1°F25.1°C 71.2°F21.8°C 82% Calm Calm -- 29.79 in1008.8 mb 0.00 in0.0 mm 0.00 in0.0 mm 1.77 in45.0 mm
07:25 PM 76.9°F24.9°C 70.9°F21.6°C 82% Calm Calm -- 29.79 in1008.8 mb 0.00 in0.0 mm 0.00 in0.0 mm 1.77 in45.0 mm
07:30 PM 76.8°F24.9°C 70.9°F21.6°C 82% Calm Calm -- 29.79 in1008.8 mb 0.00 in0.0 mm 0.00 in0.0 mm 1.77 in45.0 mm
07:35 PM 76.9°F24.9°C 70.9°F21.6°C 82% Calm Calm -- 29.79 in1008.8 mb 0.00 in0.0 mm 0.00 in0.0 mm 1.77 in45.0 mm
07:40 PM 77.1°F25.1°C 71.2°F21.8°C 82% Calm Calm -- 29.79 in1008.8 mb 0.00 in0.0 mm 0.00 in0.0 mm 1.77 in45.0 mm
07:45 PM 77.2°F25.1°C 71.2°F21.8°C 82% Calm Calm -- 29.79 in1008.8 mb 0.00 in0.0 mm 0.00 in0.0 mm 1.77 in45.0 mm
07:50 PM 77.2°F25.1°C 71.2°F21.8°C 82% Calm Calm -- 29.79 in1008.8 mb 0.00 in0.0 mm 0.00 in0.0 mm 1.77 in45.0 mm
07:55 PM 77.0°F25.0°C 71.1°F21.7°C 82% Calm Calm -- 29.79 in1008.8 mb 0.00 in0.0 mm 0.00 in0.0 mm 1.77 in45.0 mm
08:00 PM 76.8°F24.9°C 70.9°F21.6°C 82% Calm Calm -- 29.79 in1008.8 mb 0.00 in0.0 mm 0.00 in0.0 mm 1.77 in45.0 mm
08:05 PM 76.4°F24.7°C 70.5°F21.4°C 82% Calm Calm -- 29.79 in1008.8 mb 0.00 in0.0 mm 0.00 in0.0 mm 1.77 in45.0 mm
08:10 PM 76.1°F24.5°C 70.2°F21.2°C 82% Calm Calm -- 29.80 in1009.1 mb 0.00 in0.0 mm 0.00 in0.0 mm 1.77 in45.0 mm
08:15 PM 75.8°F24.3°C 70.2°F21.2°C 83% Calm Calm -- 29.80 in1009.1 mb 0.00 in0.0 mm 0.00 in0.0 mm 1.77 in45.0 mm
08:20 PM 75.6°F24.2°C 70.0°F21.1°C 83% Calm Calm -- 29.80 in1009.1 mb 0.00 in0.0 mm 0.00 in0.0 mm 1.77 in45.0 mm
08:25 PM 75.3°F24.1°C 70.2°F21.2°C 84% Calm Calm -- 29.80 in1009.1 mb 0.00 in0.0 mm 0.00 in0.0 mm 1.77 in45.0 mm
08:30 PM 75.1°F23.9°C 69.8°F21.0°C 84% Calm Calm -- 29.81 in1009.5 mb 0.00 in0.0 mm 0.00 in0.0 mm 1.77 in45.0 mm
08:35 PM 74.8°F23.8°C 70.0°F21.1°C 85% Calm Calm -- 29.81 in1009.5 mb 0.00 in0.0 mm 0.00 in0.0 mm 1.77 in45.0 mm
08:40 PM 74.5°F23.6°C 70.0°F21.1°C 86% Calm Calm -- 29.81 in1009.5 mb 0.00 in0.0 mm 0.00 in0.0 mm 1.77 in45.0 mm
08:45 PM 74.2°F23.4°C 69.6°F20.9°C 86% Calm Calm -- 29.82 in1009.8 mb 0.00 in0.0 mm 0.00 in0.0 mm 1.77 in45.0 mm
08:50 PM 73.9°F23.3°C 69.4°F20.8°C 86% Calm Calm -- 29.83 in1010.2 mb 0.00 in0.0 mm 0.00 in0.0 mm 1.77 in45.0 mm
08:55 PM 73.6°F23.1°C 69.4°F20.8°C 87% Calm Calm -- 29.82 in1009.8 mb 0.00 in0.0 mm 0.00 in0.0 mm 1.77 in45.0 mm
09:00 PM 73.4°F23.0°C 69.6°F20.9°C 88% Calm Calm -- 29.83 in1010.2 mb 0.00 in0.0 mm 0.00 in0.0 mm 1.77 in45.0 mm
09:05 PM 73.2°F22.9°C 69.4°F20.8°C 88% Calm Calm -- 29.84 in1010.5 mb 0.00 in0.0 mm 0.00 in0.0 mm 1.77 in45.0 mm
09:10 PM 72.8°F22.7°C 69.1°F20.6°C 88% Calm Calm -- 29.84 in1010.5 mb 0.00 in0.0 mm 0.00 in0.0 mm 1.77 in45.0 mm
09:15 PM 72.6°F22.6°C 68.9°F20.5°C 88% Calm Calm -- 29.84 in1010.5 mb 0.00 in0.0 mm 0.00 in0.0 mm 1.77 in45.0 mm
09:20 PM 72.4°F22.4°C 68.9°F20.5°C 89% Calm Calm -- 29.84 in1010.5 mb 0.00 in0.0 mm 0.00 in0.0 mm 1.77 in45.0 mm
09:25 PM 72.2°F22.3°C 68.7°F20.4°C 89% Calm Calm -- 29.84 in1010.5 mb 0.00 in0.0 mm 0.00 in0.0 mm 1.77 in45.0 mm
09:30 PM 72.0°F22.2°C 68.5°F20.3°C 89% Calm Calm -- 29.84 in1010.5 mb 0.00 in0.0 mm 0.00 in0.0 mm 1.77 in45.0 mm
09:35 PM 71.8°F22.1°C 68.4°F20.2°C 89% Calm Calm -- 29.84 in1010.5 mb 0.00 in0.0 mm 0.00 in0.0 mm 1.77 in45.0 mm
09:40 PM 71.7°F22.1°C 68.7°F20.4°C 90% Calm Calm -- 29.84 in1010.5 mb 0.00 in0.0 mm 0.00 in0.0 mm 1.77 in45.0 mm
09:45 PM 71.5°F21.9°C 68.4°F20.2°C 90% Calm Calm -- 29.84 in1010.5 mb 0.00 in0.0 mm 0.00 in0.0 mm 1.77 in45.0 mm
09:50 PM 71.5°F21.9°C 68.7°F20.4°C 91% Calm Calm -- 29.84 in1010.5 mb 0.00 in0.0 mm 0.00 in0.0 mm 1.77 in45.0 mm
09:55 PM 71.4°F21.9°C 68.7°F20.4°C 91% Calm Calm -- 29.85 in1010.8 mb 0.00 in0.0 mm 0.00 in0.0 mm 1.77 in45.0 mm
10:00 PM 71.3°F21.8°C 68.5°F20.3°C 91% Calm Calm -- 29.84 in1010.5 mb 0.00 in0.0 mm 0.00 in0.0 mm 1.77 in45.0 mm
10:05 PM 71.2°F21.8°C 68.5°F20.3°C 91% Calm Calm -- 29.85 in1010.8 mb 0.00 in0.0 mm 0.00 in0.0 mm 1.77 in45.0 mm
10:10 PM 71.2°F21.8°C 68.5°F20.3°C 91% Calm Calm -- 29.84 in1010.5 mb 0.00 in0.0 mm 0.00 in0.0 mm 1.77 in45.0 mm
10:15 PM 71.0°F21.7°C 68.4°F20.2°C 91% Calm Calm -- 29.84 in1010.5 mb 0.00 in0.0 mm 0.00 in0.0 mm 1.77 in45.0 mm
10:20 PM 70.9°F21.6°C 68.2°F20.1°C 91% Calm Calm -- 29.84 in1010.5 mb 0.00 in0.0 mm 0.00 in0.0 mm 1.77 in45.0 mm
10:25 PM 70.7°F21.5°C 68.0°F20.0°C 91% Calm Calm -- 29.84 in1010.5 mb 0.00 in0.0 mm 0.00 in0.0 mm 1.77 in45.0 mm
10:30 PM 70.5°F21.4°C 67.8°F19.9°C 91% Calm Calm -- 29.84 in1010.5 mb 0.00 in0.0 mm 0.00 in0.0 mm 1.77 in45.0 mm
10:35 PM 70.4°F21.3°C 67.6°F19.8°C 91% Calm Calm -- 29.83 in1010.2 mb 0.00 in0.0 mm 0.00 in0.0 mm 1.77 in45.0 mm
10:40 PM 70.4°F21.3°C 67.6°F19.8°C 91% Calm Calm -- 29.83 in1010.2 mb 0.00 in0.0 mm 0.00 in0.0 mm 1.77 in45.0 mm
10:45 PM 70.3°F21.3°C 67.6°F19.8°C 91% Calm Calm -- 29.83 in1010.2 mb 0.00 in0.0 mm 0.00 in0.0 mm 1.77 in45.0 mm
10:50 PM 70.3°F21.3°C 67.6°F19.8°C 91% Calm Calm -- 29.83 in1010.2 mb 0.00 in0.0 mm 0.00 in0.0 mm 1.77 in45.0 mm
10:55 PM 70.2°F21.2°C 67.5°F19.7°C 91% Calm Calm -- 29.82 in1009.8 mb 0.00 in0.0 mm 0.00 in0.0 mm 1.77 in45.0 mm
11:00 PM 70.1°F21.2°C 67.5°F19.7°C 91% Calm Calm -- 29.83 in1010.2 mb 0.00 in0.0 mm 0.00 in0.0 mm 1.77 in45.0 mm
11:05 PM 70.1°F21.2°C 67.5°F19.7°C 91% Calm Calm -- 29.83 in1010.2 mb 0.00 in0.0 mm 0.00 in0.0 mm 1.77 in45.0 mm
11:10 PM 70.0°F21.1°C 67.3°F19.6°C 91% Calm Calm -- 29.83 in1010.2 mb 0.00 in0.0 mm 0.00 in0.0 mm 1.77 in45.0 mm
11:15 PM 69.9°F21.1°C 67.3°F19.6°C 91% Calm Calm -- 29.83 in1010.2 mb 0.00 in0.0 mm 0.00 in0.0 mm 1.77 in45.0 mm
11:20 PM 69.8°F21.0°C 67.1°F19.5°C 91% Calm Calm -- 29.84 in1010.5 mb 0.00 in0.0 mm 0.00 in0.0 mm 1.77 in45.0 mm
11:25 PM 69.7°F20.9°C 66.9°F19.4°C 91% Calm Calm -- 29.84 in1010.5 mb 0.00 in0.0 mm 0.00 in0.0 mm 1.77 in45.0 mm
11:30 PM 69.6°F20.9°C 66.9°F19.4°C 91% Calm Calm -- 29.85 in1010.8 mb 0.00 in0.0 mm 0.00 in0.0 mm 1.77 in45.0 mm
11:35 PM 69.5°F20.8°C 66.7°F19.3°C 91% Calm Calm -- 29.85 in1010.8 mb 0.00 in0.0 mm 0.00 in0.0 mm 1.77 in45.0 mm
11:40 PM 69.4°F20.8°C 66.7°F19.3°C 91% Calm Calm -- 29.85 in1010.8 mb 0.00 in0.0 mm 0.00 in0.0 mm 1.77 in45.0 mm
11:45 PM 69.4°F20.8°C 66.7°F19.3°C 91% Calm Calm -- 29.85 in1010.8 mb 0.00 in0.0 mm 0.00 in0.0 mm 1.77 in45.0 mm
11:50 PM 69.2°F20.7°C 66.6°F19.2°C 91% Calm Calm -- 29.85 in1010.8 mb 0.00 in0.0 mm 0.00 in0.0 mm 1.77 in45.0 mm
11:55 PM 69.1°F20.6°C 66.4°F19.1°C 91% Calm Calm -- 29.86 in1011.2 mb 0.00 in0.0 mm 0.00 in0.0 mm 1.77 in45.0 mm